Terminal Aerodrome Forecast
Issued by NWS

Current Version | Previous Version | Graphics & Text | Print | Product List | Glossary On
Versions: 1 2 3 4 5 6 7 8 9 10 11 12 13 14 15 16 17
000
FTUS41 KPBZ 232300
TAFHLG
TAF
KHLG 232326Z 2400/2424 13010KT 6SM -RA BKN050
     FM240300 16011G19KT 5SM -RA OVC015
      TEMPO 2405/2408 2SM -RA BR OVC008
     FM241000 17013KT P6SM OVC025
     FM241400 20018G37KT P6SM BKN050=

USA.gov is the U.S. government's official web portal to all federal, state and local government web resources and services.